Time;durP1;ratioP1;P1;durP2;ratioP2;P2;SDS_P1;SDS_P2;PMS_P1;PMS_P2;Temp;Humidity;BMP_temperature;BMP_pressure;BME280_temperature;BME280_humidity;BME280_pressure;Samples;Min_cycle;Max_cycle;Signal;HPM_P1;HPM_P2
2022/01/08 00:00:05;;;;;;;0.75;0.20;;;;;;;;;;5032113;28;20254;-67
2022/01/08 00:02:31;;;;;;;0.50;0.30;;;;;;;;;;5032251;28;20025;-65
2022/01/08 00:04:57;;;;;;;1.85;0.55;;;;;;;;;;5031843;28;20053;-66
2022/01/08 00:07:22;;;;;;;0.50;0.10;;;;;;;;;;5032442;28;20025;-66
2022/01/08 00:09:47;;;;;;;0.68;0.10;;;;;;;;;;5032312;28;20026;-66
2022/01/08 00:12:13;;;;;;;0.30;0.30;;;;;;;;;;5031967;28;20033;-64
2022/01/08 00:14:38;;;;;;;0.63;0.13;;;;;;;;;;5032144;28;20253;-65
2022/01/08 00:17:04;;;;;;;0.90;0.20;;;;;;;;;;5031902;28;20025;-67
2022/01/08 00:19:29;;;;;;;1.38;0.70;;;;;;;;;;5032112;28;20013;-66
2022/01/08 00:21:54;;;;;;;0.50;0.20;;;;;;;;;;5031786;28;20021;-65
2022/01/08 00:24:19;;;;;;;0.35;0.03;;;;;;;;;;5031917;28;20243;-66
2022/01/08 00:26:44;;;;;;;0.30;0.10;;;;;;;;;;5032100;28;20029;-66
2022/01/08 00:29:09;;;;;;;0.25;0.10;;;;;;;;;;5031835;28;20018;-68
2022/01/08 00:31:35;;;;;;;1.83;0.40;;;;;;;;;;5031865;28;20028;-66
2022/01/08 00:34:00;;;;;;;0.80;0.10;;;;;;;;;;5031620;28;20278;-65
2022/01/08 00:36:25;;;;;;;1.03;0.30;;;;;;;;;;5031953;28;20022;-65
2022/01/08 00:38:50;;;;;;;0.57;0.10;;;;;;;;;;5031809;28;20586;-65
2022/01/08 00:41:15;;;;;;;0.75;0.30;;;;;;;;;;5031815;28;20099;-66
2022/01/08 00:43:41;;;;;;;0.63;0.10;;;;;;;;;;5031848;28;20380;-67
2022/01/08 00:46:06;;;;;;;1.08;0.38;;;;;;;;;;5031661;28;20532;-66
2022/01/08 00:48:31;;;;;;;2.25;0.85;;;;;;;;;;5032079;28;20029;-65
2022/01/08 00:50:56;;;;;;;0.20;0.10;;;;;;;;;;5035206;28;20036;-65
2022/01/08 00:53:21;;;;;;;0.52;0.13;;;;;;;;;;5035236;28;20274;-65
2022/01/08 00:55:46;;;;;;;0.52;0.20;;;;;;;;;;5035268;28;20029;-65
2022/01/08 00:58:12;;;;;;;0.63;0.10;;;;;;;;;;5035725;28;20017;-66
2022/01/08 01:00:37;;;;;;;0.10;0.10;;;;;;;;;;5035240;28;20590;-66
2022/01/08 01:03:03;;;;;;;0.47;0.20;;;;;;;;;;5034989;28;20032;-66
2022/01/08 01:05:28;;;;;;;0.30;0.20;;;;;;;;;;5034911;28;20046;-65
2022/01/08 01:07:54;;;;;;;0.65;0.17;;;;;;;;;;5034842;28;20661;-65
2022/01/08 01:10:19;;;;;;;0.70;0.10;;;;;;;;;;5034958;28;20014;-66
2022/01/08 01:12:44;;;;;;;0.68;0.10;;;;;;;;;;5034962;28;20026;-66
2022/01/08 01:15:11;;;;;;;1.20;0.20;;;;;;;;;;5034778;28;20025;-67
2022/01/08 01:17:36;;;;;;;0.15;0.10;;;;;;;;;;5035076;28;20247;-66
2022/01/08 01:20:02;;;;;;;1.67;0.27;;;;;;;;;;5034664;28;20018;-66
2022/01/08 01:22:36;;;;;;;0.40;0.10;;;;;;;;;;5034743;28;20286;-66
2022/01/08 01:25:05;;;;;;;;;;;;;;;;;;5034971;28;20032;-65
2022/01/08 01:28:14;;;;;;;1.05;0.20;;;;;;;;;;5034724;28;19905;-65
2022/01/08 01:30:28;;;;;;;0.13;0.00;;;;;;;;;;5023786;28;20111;-65
2022/01/08 01:49:13;;;;;;;0.35;0.10;;;;;;;;;;4953808;29;20406;-66
2022/01/08 01:51:38;;;;;;;0.10;0.10;;;;;;;;;;4953709;29;20035;-68
2022/01/08 01:54:04;;;;;;;0.90;0.10;;;;;;;;;;4953508;29;20281;-67
2022/01/08 01:56:29;;;;;;;0.93;0.43;;;;;;;;;;4953677;29;20023;-66
2022/01/08 01:58:55;;;;;;;0.22;0.10;;;;;;;;;;4953526;29;20036;-66
2022/01/08 02:01:21;;;;;;;0.85;0.10;;;;;;;;;;4952915;28;20023;-65
2022/01/08 02:03:46;;;;;;;0.30;0.10;;;;;;;;;;4953366;29;20038;-66
2022/01/08 02:06:11;;;;;;;0.32;0.10;;;;;;;;;;4953371;29;20712;-67
2022/01/08 02:08:38;;;;;;;0.83;0.10;;;;;;;;;;4953438;29;20038;-66
2022/01/08 02:11:04;;;;;;;0.47;0.28;;;;;;;;;;4953187;29;20265;-66
2022/01/08 02:13:29;;;;;;;0.25;0.08;;;;;;;;;;5022704;28;20136;-66
2022/01/08 02:15:56;;;;;;;0.28;0.08;;;;;;;;;;5033759;28;20045;-67
2022/01/08 02:18:27;;;;;;;0.20;0.03;;;;;;;;;;5033691;28;20380;-68
2022/01/08 02:20:54;;;;;;;1.90;0.28;;;;;;;;;;5033561;28;20096;-66
2022/01/08 02:23:19;;;;;;;1.05;0.35;;;;;;;;;;5033822;28;20025;-65
2022/01/08 02:25:44;;;;;;;0.00;0.00;;;;;;;;;;5033493;28;20257;-67
2022/01/08 02:28:09;;;;;;;1.20;0.20;;;;;;;;;;5033349;28;20686;-66
2022/01/08 02:30:34;;;;;;;2.88;0.40;;;;;;;;;;5032227;28;20263;-65
2022/01/08 02:33:00;;;;;;;0.60;0.07;;;;;;;;;;5033216;28;20017;-65
2022/01/08 02:35:25;;;;;;;0.22;0.00;;;;;;;;;;5033702;28;20263;-68
2022/01/08 02:37:51;;;;;;;1.23;0.10;;;;;;;;;;5033224;28;20025;-67
2022/01/08 02:40:18;;;;;;;0.25;0.10;;;;;;;;;;5033167;28;20052;-66
2022/01/08 02:42:51;;;;;;;0.40;0.10;;;;;;;;;;5033380;28;20044;-66
2022/01/08 02:45:17;;;;;;;0.10;0.10;;;;;;;;;;5033141;28;20033;-66
2022/01/08 02:47:42;;;;;;;0.70;0.10;;;;;;;;;;5033218;28;20076;-66
2022/01/08 02:50:08;;;;;;;0.45;0.20;;;;;;;;;;5032978;28;20492;-67
2022/01/08 02:52:33;;;;;;;1.17;0.15;;;;;;;;;;5032991;28;20033;-67
2022/01/08 02:54:58;;;;;;;0.13;0.10;;;;;;;;;;5032957;28;20448;-68
2022/01/08 02:57:23;;;;;;;0.83;0.10;;;;;;;;;;5033290;28;20251;-67
2022/01/08 02:59:49;;;;;;;0.50;0.10;;;;;;;;;;5032829;28;20718;-67
2022/01/08 03:02:14;;;;;;;1.40;0.30;;;;;;;;;;5032800;28;20297;-67
2022/01/08 03:04:39;;;;;;;1.00;0.15;;;;;;;;;;5031506;28;20041;-66
2022/01/08 03:07:05;;;;;;;0.10;0.03;;;;;;;;;;5032640;28;20020;-66
2022/01/08 03:09:32;;;;;;;0.70;0.13;;;;;;;;;;5032830;28;20040;-66
2022/01/08 03:11:58;;;;;;;1.08;0.25;;;;;;;;;;5032098;28;20416;-66
2022/01/08 03:14:23;;;;;;;0.33;0.33;;;;;;;;;;5032339;28;20022;-66
2022/01/08 03:16:48;;;;;;;0.30;0.00;;;;;;;;;;5032662;28;20294;-67
2022/01/08 03:19:15;;;;;;;0.32;0.22;;;;;;;;;;5032615;28;20247;-67
2022/01/08 03:21:46;;;;;;;1.08;0.22;;;;;;;;;;5032637;28;20056;-66
2022/01/08 03:24:15;;;;;;;0.10;0.00;;;;;;;;;;5032690;28;20014;-66
2022/01/08 03:26:41;;;;;;;1.25;0.32;;;;;;;;;;5032652;28;20056;-66
2022/01/08 03:29:07;;;;;;;1.80;0.20;;;;;;;;;;5032414;28;20314;-66
2022/01/08 03:31:33;;;;;;;0.35;0.10;;;;;;;;;;5032539;28;20017;-65
2022/01/08 03:33:58;;;;;;;1.17;0.00;;;;;;;;;;5032199;28;20457;-66
2022/01/08 03:36:23;;;;;;;0.25;0.15;;;;;;;;;;5032498;28;20279;-67
2022/01/08 03:38:49;;;;;;;1.67;0.13;;;;;;;;;;5032428;28;20025;-66
2022/01/08 03:41:14;;;;;;;0.55;0.05;;;;;;;;;;5032584;28;20485;-67
2022/01/08 03:43:39;;;;;;;0.60;0.17;;;;;;;;;;5032351;28;20032;-65
2022/01/08 03:46:05;;;;;;;0.85;0.20;;;;;;;;;;5032437;28;20278;-67
2022/01/08 03:48:43;;;;;;;0.57;0.20;;;;;;;;;;5032399;28;20021;-67
2022/01/08 03:51:08;;;;;;;1.08;0.10;;;;;;;;;;5032146;28;20018;-67
2022/01/08 03:53:33;;;;;;;1.55;0.70;;;;;;;;;;5032184;28;20032;-67
2022/01/08 03:55:59;;;;;;;1.27;0.20;;;;;;;;;;5032139;28;20057;-66
2022/01/08 03:58:25;;;;;;;0.32;0.10;;;;;;;;;;5032220;28;20079;-66
2022/01/08 04:00:50;;;;;;;0.20;0.20;;;;;;;;;;5032199;28;20420;-66
2022/01/08 04:03:18;;;;;;;0.80;0.10;;;;;;;;;;5032072;28;20052;-67
2022/01/08 04:05:45;;;;;;;0.63;0.10;;;;;;;;;;5031974;28;20278;-66
2022/01/08 04:08:10;;;;;;;0.50;0.13;;;;;;;;;;5031985;28;20137;-66
2022/01/08 04:10:35;;;;;;;0.38;0.10;;;;;;;;;;5032142;28;20105;-65
2022/01/08 04:13:08;;;;;;;0.93;0.20;;;;;;;;;;5031999;28;20068;-68
2022/01/08 04:15:37;;;;;;;1.48;0.10;;;;;;;;;;5032066;28;20666;-66
2022/01/08 04:18:02;;;;;;;0.47;0.10;;;;;;;;;;5031952;28;20014;-66
2022/01/08 04:20:28;;;;;;;0.40;0.10;;;;;;;;;;5032065;28;20059;-67
2022/01/08 04:22:54;;;;;;;0.40;0.10;;;;;;;;;;5030596;28;20481;-67
2022/01/08 04:25:20;;;;;;;0.20;0.10;;;;;;;;;;5034992;28;20055;-66
2022/01/08 04:27:45;;;;;;;0.68;0.10;;;;;;;;;;5035766;28;20308;-66
2022/01/08 04:30:11;;;;;;;1.05;0.20;;;;;;;;;;5035625;28;20025;-66
2022/01/08 04:32:36;;;;;;;0.45;0.17;;;;;;;;;;5035872;28;20453;-66
2022/01/08 04:35:02;;;;;;;0.45;0.15;;;;;;;;;;5035528;28;20029;-65
2022/01/08 04:37:27;;;;;;;0.13;0.10;;;;;;;;;;5035665;28;20033;-66
2022/01/08 04:39:52;;;;;;;0.93;0.30;;;;;;;;;;5035479;28;20030;-67
2022/01/08 04:42:17;;;;;;;1.37;0.10;;;;;;;;;;5035461;28;20594;-66
2022/01/08 04:44:42;;;;;;;0.50;0.20;;;;;;;;;;5035560;28;20286;-66
2022/01/08 04:47:07;;;;;;;0.40;0.10;;;;;;;;;;5035317;28;20269;-65
2022/01/08 04:49:33;;;;;;;0.50;0.30;;;;;;;;;;5035412;28;20734;-66
2022/01/08 04:51:58;;;;;;;1.55;0.30;;;;;;;;;;5035225;28;20250;-66
2022/01/08 04:54:23;;;;;;;0.63;0.10;;;;;;;;;;5035548;28;20067;-68
2022/01/08 04:56:48;;;;;;;1.27;0.10;;;;;;;;;;5035214;28;20722;-68
2022/01/08 04:59:13;;;;;;;0.43;0.10;;;;;;;;;;5035111;28;20289;-66
2022/01/08 05:01:38;;;;;;;0.40;0.17;;;;;;;;;;5035137;28;20026;-66
2022/01/08 05:04:04;;;;;;;1.07;0.10;;;;;;;;;;5034826;28;20247;-66
2022/01/08 05:06:30;;;;;;;0.20;0.20;;;;;;;;;;5035107;28;20648;-66
2022/01/08 05:08:55;;;;;;;0.50;0.00;;;;;;;;;;5033610;28;20025;-68
2022/01/08 05:11:20;;;;;;;0.53;0.00;;;;;;;;;;5035033;28;20017;-67
2022/01/08 05:13:46;;;;;;;0.10;0.10;;;;;;;;;;5034849;28;20730;-67
2022/01/08 05:16:11;;;;;;;0.63;0.20;;;;;;;;;;5034785;28;20049;-66
2022/01/08 05:18:36;;;;;;;1.17;0.30;;;;;;;;;;5034928;28;20018;-65
2022/01/08 05:21:15;;;;;;;0.30;0.10;;;;;;;;;;5034646;28;20025;-67
2022/01/08 05:23:41;;;;;;;1.02;0.10;;;;;;;;;;5034765;28;20021;-66
2022/01/08 05:26:06;;;;;;;0.47;0.10;;;;;;;;;;5034534;28;20075;-66
2022/01/08 05:28:31;;;;;;;0.87;0.10;;;;;;;;;;5034749;28;20036;-66
2022/01/08 05:30:56;;;;;;;0.53;0.10;;;;;;;;;;5034567;28;20258;-66
2022/01/08 05:33:21;;;;;;;1.02;0.03;;;;;;;;;;5034431;28;20282;-66
2022/01/08 05:35:47;;;;;;;1.10;0.10;;;;;;;;;;5033492;28;20021;-67
2022/01/08 05:38:12;;;;;;;0.93;0.30;;;;;;;;;;5034381;28;20464;-67
2022/01/08 05:40:37;;;;;;;0.30;0.10;;;;;;;;;;5034440;28;20290;-67
2022/01/08 05:43:02;;;;;;;0.77;0.20;;;;;;;;;;5034558;28;20067;-66
2022/01/08 05:45:27;;;;;;;0.10;0.03;;;;;;;;;;5034369;28;20664;-66
2022/01/08 05:47:53;;;;;;;0.00;0.00;;;;;;;;;;5034227;28;20258;-66
2022/01/08 05:50:18;;;;;;;0.70;0.33;;;;;;;;;;5034225;28;20025;-66
2022/01/08 05:52:43;;;;;;;0.80;0.20;;;;;;;;;;5034216;28;20120;-68
2022/01/08 05:55:09;;;;;;;0.52;0.17;;;;;;;;;;5034019;28;20762;-68
2022/01/08 05:57:34;;;;;;;0.73;0.30;;;;;;;;;;5034001;28;20021;-67
2022/01/08 06:00:01;;;;;;;1.08;0.25;;;;;;;;;;5033906;28;20072;-66
2022/01/08 06:02:26;;;;;;;0.45;0.10;;;;;;;;;;5034088;28;20033;-66
2022/01/08 06:04:51;;;;;;;1.45;0.17;;;;;;;;;;5033760;28;20045;-65
2022/01/08 06:07:16;;;;;;;0.83;0.10;;;;;;;;;;5033849;28;20026;-66
2022/01/08 06:09:42;;;;;;;0.30;0.10;;;;;;;;;;5034133;28;20250;-66
2022/01/08 06:12:07;;;;;;;0.37;0.10;;;;;;;;;;5033593;28;20312;-65
2022/01/08 06:14:32;;;;;;;0.30;0.10;;;;;;;;;;5033843;28;20254;-65
2022/01/08 06:16:57;;;;;;;0.30;0.20;;;;;;;;;;5033581;28;20024;-68
2022/01/08 06:19:23;;;;;;;0.65;0.38;;;;;;;;;;5032463;28;20025;-66
2022/01/08 06:21:48;;;;;;;0.57;0.13;;;;;;;;;;5033562;28;20055;-67
2022/01/08 06:24:14;;;;;;;0.30;0.10;;;;;;;;;;5033507;28;20535;-66
2022/01/08 06:26:39;;;;;;;1.98;0.13;;;;;;;;;;5033664;28;20239;-65
2022/01/08 06:29:04;;;;;;;0.20;0.03;;;;;;;;;;5033422;28;20021;-67
2022/01/08 06:31:29;;;;;;;0.63;0.10;;;;;;;;;;5033603;28;20025;-65
2022/01/08 06:33:55;;;;;;;0.32;0.03;;;;;;;;;;5033174;28;20757;-67
2022/01/08 06:36:22;;;;;;;0.30;0.00;;;;;;;;;;5033379;28;20430;-68
2022/01/08 06:38:47;;;;;;;0.15;0.13;;;;;;;;;;5033725;28;20056;-67
2022/01/08 06:41:13;;;;;;;0.95;0.20;;;;;;;;;;5033257;28;20045;-67
2022/01/08 06:43:38;;;;;;;0.40;0.10;;;;;;;;;;5033242;28;20025;-66
2022/01/08 06:46:03;;;;;;;1.23;0.17;;;;;;;;;;5033291;28;20345;-66
2022/01/08 06:48:29;;;;;;;0.43;0.20;;;;;;;;;;5033091;28;20110;-66
2022/01/08 06:50:54;;;;;;;0.55;0.10;;;;;;;;;;5033022;28;20017;-66
2022/01/08 06:53:19;;;;;;;0.17;0.10;;;;;;;;;;5033308;28;20021;-68
2022/01/08 06:55:44;;;;;;;0.47;0.30;;;;;;;;;;5033052;28;20680;-67
2022/01/08 06:58:09;;;;;;;0.30;0.00;;;;;;;;;;5032818;28;20021;-66
2022/01/08 07:00:35;;;;;;;1.65;0.45;;;;;;;;;;5033029;28;20013;-66
2022/01/08 07:03:00;;;;;;;0.40;0.10;;;;;;;;;;5032774;28;20029;-66
2022/01/08 07:05:25;;;;;;;0.15;0.00;;;;;;;;;;5032858;28;20053;-66
2022/01/08 07:07:50;;;;;;;0.68;0.17;;;;;;;;;;5032669;28;20017;-66
2022/01/08 07:10:15;;;;;;;1.23;0.27;;;;;;;;;;5031524;28;20064;-66
2022/01/08 07:12:41;;;;;;;0.63;0.00;;;;;;;;;;5032722;28;20029;-68
2022/01/08 07:15:06;;;;;;;0.55;0.10;;;;;;;;;;5032588;28;20346;-66
2022/01/08 07:17:31;;;;;;;0.40;0.22;;;;;;;;;;5032986;28;20472;-68
2022/01/08 07:19:56;;;;;;;0.53;0.10;;;;;;;;;;5032494;28;20017;-67
2022/01/08 07:22:22;;;;;;;0.30;0.07;;;;;;;;;;5032548;28;20029;-66
2022/01/08 07:24:47;;;;;;;0.40;0.10;;;;;;;;;;5032629;28;20678;-66
2022/01/08 07:27:13;;;;;;;1.00;0.50;;;;;;;;;;5032763;28;20251;-66
2022/01/08 07:29:38;;;;;;;0.40;0.10;;;;;;;;;;5032501;28;20426;-66
2022/01/08 07:32:03;;;;;;;0.50;0.17;;;;;;;;;;5032433;28;20079;-67
2022/01/08 07:34:28;;;;;;;0.38;0.20;;;;;;;;;;5032416;28;20025;-68
2022/01/08 07:36:54;;;;;;;0.80;0.10;;;;;;;;;;5031131;28;20013;-68
2022/01/08 07:39:19;;;;;;;0.63;0.05;;;;;;;;;;5032364;28;20484;-67
2022/01/08 07:41:44;;;;;;;0.00;0.00;;;;;;;;;;5032453;28;20036;-66
2022/01/08 07:44:09;;;;;;;0.20;0.10;;;;;;;;;;5032269;28;20439;-67
2022/01/08 07:46:34;;;;;;;1.02;0.45;;;;;;;;;;5032376;28;20025;-66
2022/01/08 07:49:00;;;;;;;0.20;0.03;;;;;;;;;;5032212;28;20526;-66
2022/01/08 07:51:25;;;;;;;0.82;0.10;;;;;;;;;;5032328;28;20253;-66
2022/01/08 07:53:50;;;;;;;0.77;0.17;;;;;;;;;;5032153;28;20033;-68
2022/01/08 07:56:15;;;;;;;0.80;0.10;;;;;;;;;;5032184;28;20255;-67
2022/01/08 07:58:40;;;;;;;0.87;0.10;;;;;;;;;;5032829;28;20039;-66
2022/01/08 08:01:05;;;;;;;0.43;0.10;;;;;;;;;;5036444;28;20247;-66
2022/01/08 08:03:31;;;;;;;0.63;0.10;;;;;;;;;;5034978;28;20262;-66
2022/01/08 08:05:56;;;;;;;0.35;0.10;;;;;;;;;;5035853;28;20076;-66
2022/01/08 08:08:21;;;;;;;1.70;0.20;;;;;;;;;;5036106;28;20022;-66
2022/01/08 08:10:48;;;;;;;1.07;0.40;;;;;;;;;;5036167;28;20025;-67
2022/01/08 08:13:17;;;;;;;1.02;0.20;;;;;;;;;;5036200;28;20300;-68
2022/01/08 08:15:42;;;;;;;0.47;0.10;;;;;;;;;;5036021;28;20118;-67
2022/01/08 08:18:07;;;;;;;1.17;0.10;;;;;;;;;;5035896;28;20461;-67
2022/01/08 08:20:33;;;;;;;0.63;0.27;;;;;;;;;;5036025;28;20528;-66
2022/01/08 08:22:58;;;;;;;0.20;0.20;;;;;;;;;;5035770;28;20033;-66
2022/01/08 08:25:23;;;;;;;0.70;0.10;;;;;;;;;;5035893;28;20427;-67
2022/01/08 08:27:50;;;;;;;0.20;0.10;;;;;;;;;;5034441;28;20293;-66
2022/01/08 08:30:15;;;;;;;0.95;0.22;;;;;;;;;;5035745;28;20265;-66
2022/01/08 08:32:40;;;;;;;0.45;0.20;;;;;;;;;;5035658;28;20026;-66
2022/01/08 08:35:06;;;;;;;0.40;0.10;;;;;;;;;;5035566;28;20017;-66
2022/01/08 08:37:33;;;;;;;0.40;0.20;;;;;;;;;;5035653;28;20652;-66
2022/01/08 08:39:58;;;;;;;0.95;0.30;;;;;;;;;;5035397;28;20487;-68
2022/01/08 08:42:24;;;;;;;0.30;0.10;;;;;;;;;;5035852;28;20017;-67
2022/01/08 08:44:49;;;;;;;0.60;0.10;;;;;;;;;;5035435;28;20029;-68
2022/01/08 08:47:14;;;;;;;2.60;0.55;;;;;;;;;;5035659;28;20021;-67
2022/01/08 08:49:39;;;;;;;1.67;0.23;;;;;;;;;;5035482;28;20021;-67
2022/01/08 08:52:04;;;;;;;1.67;0.20;;;;;;;;;;5035223;28;20010;-67
2022/01/08 08:54:30;;;;;;;1.67;0.40;;;;;;;;;;5035613;28;20271;-67
2022/01/08 08:56:55;;;;;;;0.10;0.05;;;;;;;;;;5035188;28;20029;-66
2022/01/08 08:59:23;;;;;;;0.13;0.03;;;;;;;;;;5035232;28;20048;-68
2022/01/08 09:01:48;;;;;;;0.25;0.00;;;;;;;;;;5035432;28;20408;-68
2022/01/08 09:04:13;;;;;;;1.30;0.20;;;;;;;;;;5035168;28;20043;-67
2022/01/08 09:06:38;;;;;;;0.47;0.20;;;;;;;;;;5035150;28;20037;-67
2022/01/08 09:09:03;;;;;;;0.57;0.30;;;;;;;;;;5034871;28;20025;-67
2022/01/08 09:11:29;;;;;;;0.57;0.17;;;;;;;;;;5035044;28;20385;-67
2022/01/08 09:13:54;;;;;;;0.70;0.10;;;;;;;;;;5034771;28;20465;-66
2022/01/08 09:16:19;;;;;;;1.00;0.50;;;;;;;;;;5034988;28;20013;-66
2022/01/08 09:18:45;;;;;;;1.67;0.20;;;;;;;;;;5033715;28;20476;-68
2022/01/08 09:21:10;;;;;;;1.65;0.30;;;;;;;;;;5034696;28;20317;-68
2022/01/08 09:23:37;;;;;;;0.52;0.13;;;;;;;;;;5034782;28;20036;-66
2022/01/08 09:26:02;;;;;;;0.63;0.30;;;;;;;;;;5034559;28;20520;-68
2022/01/08 09:28:28;;;;;;;0.15;0.10;;;;;;;;;;5034767;28;20105;-68
2022/01/08 09:30:54;;;;;;;0.10;0.00;;;;;;;;;;5033929;28;20083;-67
2022/01/08 09:33:19;;;;;;;0.08;0.00;;;;;;;;;;5034495;28;20029;-67
2022/01/08 09:35:44;;;;;;;2.10;0.30;;;;;;;;;;5034566;28;20488;-66
2022/01/08 09:38:09;;;;;;;0.80;0.10;;;;;;;;;;5034403;28;20024;-67
2022/01/08 09:40:34;;;;;;;0.47;0.20;;;;;;;;;;5034479;28;20715;-67
2022/01/08 09:43:00;;;;;;;0.20;0.00;;;;;;;;;;5034360;28;20251;-67
2022/01/08 09:45:25;;;;;;;0.40;0.10;;;;;;;;;;5034342;28;20251;-66
2022/01/08 09:47:50;;;;;;;0.50;0.00;;;;;;;;;;5034245;28;20452;-66
2022/01/08 09:50:16;;;;;;;0.17;0.10;;;;;;;;;;5033028;28;20261;-68
2022/01/08 09:52:41;;;;;;;0.25;0.10;;;;;;;;;;5034241;28;20052;-67
2022/01/08 09:55:06;;;;;;;0.28;0.10;;;;;;;;;;5034149;28;20051;-66
2022/01/08 09:57:32;;;;;;;0.55;0.20;;;;;;;;;;5034131;28;20047;-67
2022/01/08 09:59:57;;;;;;;0.57;0.10;;;;;;;;;;5033988;28;20144;-66
2022/01/08 10:02:22;;;;;;;0.57;0.20;;;;;;;;;;5034031;28;20304;-68
2022/01/08 10:04:48;;;;;;;0.45;0.20;;;;;;;;;;5034100;28;20046;-68
2022/01/08 10:07:14;;;;;;;2.20;0.20;;;;;;;;;;5034138;28;20022;-67
2022/01/08 10:09:56;;;;;;;0.52;0.10;;;;;;;;;;5033911;28;20118;-68
2022/01/08 10:12:34;;;;;;;1.65;0.10;;;;;;;;;;5033772;28;20024;-67
2022/01/08 10:17:43;;;;;;;1.20;0.10;;;;;;;;;;5033803;28;20040;-67
2022/01/08 10:20:08;;;;;;;1.27;0.10;;;;;;;;;;5033642;28;20026;-67
2022/01/08 10:22:33;;;;;;;0.67;0.10;;;;;;;;;;5033196;28;20065;-67
2022/01/08 10:25:09;;;;;;;0.85;0.20;;;;;;;;;;5033473;28;20247;-67
2022/01/08 10:27:35;;;;;;;0.75;0.20;;;;;;;;;;5033615;28;20029;-66
2022/01/08 10:30:00;;;;;;;1.27;0.20;;;;;;;;;;5033361;28;20020;-66
2022/01/08 10:32:26;;;;;;;0.63;0.30;;;;;;;;;;5033410;28;20100;-66
2022/01/08 10:34:51;;;;;;;0.80;0.15;;;;;;;;;;5033427;28;20265;-68
2022/01/08 10:37:16;;;;;;;1.45;0.20;;;;;;;;;;5033356;28;20108;-67
2022/01/08 10:39:41;;;;;;;1.60;0.33;;;;;;;;;;5033276;28;20071;-67
2022/01/08 10:42:09;;;;;;;1.10;0.20;;;;;;;;;;5033205;28;20342;-66
2022/01/08 10:44:35;;;;;;;0.45;0.30;;;;;;;;;;5033251;28;20088;-69
2022/01/08 10:47:07;;;;;;;0.80;0.17;;;;;;;;;;5033108;28;20473;-67
2022/01/08 10:49:35;;;;;;;0.75;0.10;;;;;;;;;;5033139;28;20457;-67
2022/01/08 10:52:02;;;;;;;0.40;0.10;;;;;;;;;;5031672;28;20025;-67
2022/01/08 10:54:28;;;;;;;0.90;0.08;;;;;;;;;;5033075;28;20029;-67
2022/01/08 10:56:59;;;;;;;1.17;0.17;;;;;;;;;;5032996;28;20381;-66
2022/01/08 10:59:25;;;;;;;1.10;0.45;;;;;;;;;;5033038;28;20044;-67
2022/01/08 11:01:52;;;;;;;0.57;0.13;;;;;;;;;;5032783;28;20068;-69
2022/01/08 11:04:29;;;;;;;0.25;0.15;;;;;;;;;;5032738;28;20143;-67
2022/01/08 11:06:56;;;;;;;0.68;0.10;;;;;;;;;;5032821;28;20070;-67
2022/01/08 11:09:22;;;;;;;1.20;0.20;;;;;;;;;;5032777;28;20018;-67
2022/01/08 11:11:50;;;;;;;0.40;0.17;;;;;;;;;;5032715;28;20067;-67
2022/01/08 11:14:24;;;;;;;1.15;0.15;;;;;;;;;;5032674;28;20018;-67
2022/01/08 11:16:50;;;;;;;;;;;;;;;;;;5033153;28;20013;-67
2022/01/08 11:19:16;;;;;;;0.60;0.10;;;;;;;;;;5033255;28;19905;-67
2022/01/08 11:21:41;;;;;;;1.40;0.20;;;;;;;;;;5032571;28;20132;-67
2022/01/08 11:24:07;;;;;;;0.60;0.10;;;;;;;;;;5032451;28;20088;-68
2022/01/08 11:26:32;;;;;;;0.27;0.20;;;;;;;;;;5031408;28;20749;-68
2022/01/08 11:28:59;;;;;;;0.17;0.10;;;;;;;;;;5032431;28;20033;-68
2022/01/08 11:31:27;;;;;;;0.77;0.57;;;;;;;;;;5032575;28;20262;-67
2022/01/08 11:33:56;;;;;;;1.75;0.10;;;;;;;;;;5031441;28;20055;-67
2022/01/08 11:36:22;;;;;;;0.57;0.10;;;;;;;;;;5032440;28;20021;-66
2022/01/08 11:38:48;;;;;;;0.63;0.10;;;;;;;;;;5032482;28;20014;-69
2022/01/08 11:41:15;;;;;;;0.65;0.25;;;;;;;;;;5032345;28;20101;-68
2022/01/08 11:43:41;;;;;;;1.65;0.25;;;;;;;;;;5031150;28;20029;-68
2022/01/08 11:46:07;;;;;;;0.55;0.20;;;;;;;;;;5032198;28;20376;-68
2022/01/08 11:48:34;;;;;;;1.63;0.75;;;;;;;;;;5032425;28;20013;-68
2022/01/08 11:51:00;;;;;;;0.30;0.20;;;;;;;;;;5030839;28;20021;-67
2022/01/08 11:53:26;;;;;;;0.47;0.25;;;;;;;;;;5032255;28;20024;-67
2022/01/08 11:55:55;;;;;;;0.30;0.10;;;;;;;;;;5032148;28;20014;-67
2022/01/08 11:58:33;;;;;;;1.80;0.20;;;;;;;;;;5032154;28;20053;-66
2022/01/08 12:01:02;;;;;;;0.30;0.03;;;;;;;;;;5032141;28;20029;-67
2022/01/08 12:03:31;;;;;;;1.15;0.13;;;;;;;;;;5030847;28;20026;-66
2022/01/08 12:05:56;;;;;;;0.43;0.10;;;;;;;;;;5031928;28;20045;-67
2022/01/08 12:09:07;;;;;;;1.23;0.20;;;;;;;;;;5032167;28;20376;-68
2022/01/08 12:11:32;;;;;;;1.23;0.20;;;;;;;;;;4971064;28;20038;-67
2022/01/08 12:14:07;;;;;;;0.82;0.28;;;;;;;;;;4970768;28;20047;-69
2022/01/08 12:16:39;;;;;;;0.80;0.13;;;;;;;;;;4971016;28;20066;-68
2022/01/08 12:19:06;;;;;;;1.38;0.32;;;;;;;;;;4970857;28;20050;-67
2022/01/08 12:21:49;;;;;;;0.80;0.30;;;;;;;;;;4970933;28;20027;-67
2022/01/08 12:24:26;;;;;;;0.60;0.10;;;;;;;;;;4970818;28;20030;-67
2022/01/08 12:26:56;;;;;;;0.55;0.35;;;;;;;;;;4970789;28;20035;-67
2022/01/08 12:29:40;;;;;;;0.93;0.25;;;;;;;;;;4954688;28;20054;-67
2022/01/08 12:35:01;;;;;;;1.65;0.10;;;;;;;;;;4970799;28;20035;-67
2022/01/08 12:37:39;;;;;;;0.90;0.10;;;;;;;;;;4970902;28;20019;-66
2022/01/08 12:40:07;;;;;;;1.50;0.30;;;;;;;;;;4970551;28;20118;-67
2022/01/08 12:42:33;;;;;;;0.47;0.10;;;;;;;;;;4970799;28;20332;-69
2022/01/08 12:44:59;;;;;;;1.05;0.20;;;;;;;;;;4992302;28;20033;-68
2022/01/08 12:47:43;;;;;;;0.80;0.10;;;;;;;;;;5035730;28;20479;-67
2022/01/08 12:50:26;;;;;;;0.70;0.22;;;;;;;;;;5035360;28;20524;-67
2022/01/08 12:53:06;;;;;;;1.13;0.30;;;;;;;;;;5035219;28;20027;-67
2022/01/08 12:55:36;;;;;;;0.65;0.05;;;;;;;;;;5035430;28;20262;-67
2022/01/08 12:58:11;;;;;;;0.77;0.47;;;;;;;;;;5035122;28;20375;-67
2022/01/08 13:00:36;;;;;;;0.70;0.10;;;;;;;;;;5035290;28;20068;-67
2022/01/08 13:03:01;;;;;;;0.57;0.30;;;;;;;;;;5035111;28;20021;-69
2022/01/08 13:05:26;;;;;;;1.58;0.22;;;;;;;;;;5035000;28;20753;-69
2022/01/08 13:07:52;;;;;;;2.23;0.10;;;;;;;;;;5033721;28;20411;-68
2022/01/08 13:10:18;;;;;;;0.10;0.10;;;;;;;;;;5034989;28;20329;-67
2022/01/08 13:12:43;;;;;;;0.35;0.20;;;;;;;;;;5035049;28;20013;-68
2022/01/08 13:15:09;;;;;;;0.13;0.10;;;;;;;;;;5033584;28;20057;-67
2022/01/08 13:17:34;;;;;;;0.10;0.10;;;;;;;;;;5034968;28;20372;-67
2022/01/08 13:20:04;;;;;;;1.70;0.30;;;;;;;;;;5034715;28;20029;-67
2022/01/08 13:22:30;;;;;;;1.27;0.20;;;;;;;;;;5033565;28;20251;-67
2022/01/08 13:24:55;;;;;;;0.32;0.20;;;;;;;;;;5034665;28;20476;-67
2022/01/08 13:27:22;;;;;;;0.60;0.37;;;;;;;;;;5034759;28;20022;-67
2022/01/08 13:29:48;;;;;;;0.30;0.13;;;;;;;;;;5034638;28;20251;-67
2022/01/08 13:32:15;;;;;;;1.17;0.20;;;;;;;;;;5033327;28;20009;-67
2022/01/08 13:34:40;;;;;;;0.60;0.22;;;;;;;;;;5034467;28;20025;-67
2022/01/08 13:37:06;;;;;;;1.38;0.57;;;;;;;;;;5034474;28;20027;-67
2022/01/08 13:39:50;;;;;;;1.42;0.28;;;;;;;;;;5034479;28;20021;-69
2022/01/08 13:42:15;;;;;;;0.20;0.20;;;;;;;;;;5034999;28;20311;-69
2022/01/08 13:44:50;;;;;;;0.77;0.40;;;;;;;;;;5034489;28;20029;-68
2022/01/08 13:47:21;;;;;;;0.38;0.10;;;;;;;;;;5034210;28;20404;-68
2022/01/08 13:49:47;;;;;;;0.95;0.28;;;;;;;;;;5034352;28;20013;-67
2022/01/08 13:52:18;;;;;;;0.75;0.05;;;;;;;;;;5034201;28;20131;-67
2022/01/08 13:54:43;;;;;;;1.55;0.40;;;;;;;;;;5034309;28;20052;-67
2022/01/08 13:57:15;;;;;;;0.32;0.20;;;;;;;;;;5033194;28;20025;-66
2022/01/08 13:59:40;;;;;;;0.77;0.25;;;;;;;;;;5034117;28;20507;-66
2022/01/08 14:02:05;;;;;;;1.45;0.30;;;;;;;;;;5034037;28;20017;-67
2022/01/08 14:04:31;;;;;;;0.17;0.13;;;;;;;;;;5033607;28;20124;-69
2022/01/08 14:06:57;;;;;;;0.98;0.20;;;;;;;;;;5033867;28;20021;-68
2022/01/08 14:09:22;;;;;;;0.38;0.15;;;;;;;;;;5033938;28;20029;-67
2022/01/08 14:11:48;;;;;;;0.30;0.10;;;;;;;;;;5033959;28;20084;-67
2022/01/08 14:14:18;;;;;;;1.10;0.32;;;;;;;;;;5033681;28;20017;-68
2022/01/08 14:16:44;;;;;;;0.55;0.20;;;;;;;;;;5033783;28;20064;-67
2022/01/08 14:19:09;;;;;;;0.80;0.13;;;;;;;;;;5033639;28;20017;-69
2022/01/08 14:21:34;;;;;;;0.75;0.10;;;;;;;;;;5033716;28;20021;-67
2022/01/08 14:24:12;;;;;;;1.10;0.30;;;;;;;;;;5033509;28;20056;-67
2022/01/08 14:26:37;;;;;;;0.45;0.10;;;;;;;;;;5033607;28;20123;-67
2022/01/08 14:29:03;;;;;;;0.60;0.23;;;;;;;;;;5033444;28;20461;-67
2022/01/08 14:31:30;;;;;;;0.28;0.10;;;;;;;;;;5033583;28;20262;-67
2022/01/08 14:34:02;;;;;;;0.60;0.03;;;;;;;;;;5033285;28;20024;-67
2022/01/08 14:36:41;;;;;;;0.43;0.10;;;;;;;;;;5033401;28;20643;-66
2022/01/08 14:39:06;;;;;;;1.08;0.20;;;;;;;;;;5033200;28;20467;-68
2022/01/08 14:41:32;;;;;;;1.20;0.38;;;;;;;;;;5032078;28;20104;-68
2022/01/08 14:43:58;;;;;;;0.20;0.00;;;;;;;;;;5033148;28;20021;-67
2022/01/08 14:46:24;;;;;;;0.10;0.10;;;;;;;;;;5033237;28;20017;-67
2022/01/08 14:48:49;;;;;;;0.73;0.20;;;;;;;;;;5033481;28;20058;-66
2022/01/08 14:51:17;;;;;;;0.47;0.20;;;;;;;;;;5031833;28;20716;-67
2022/01/08 14:53:42;;;;;;;1.55;0.30;;;;;;;;;;5033139;28;20037;-68
2022/01/08 14:56:07;;;;;;;0.98;0.20;;;;;;;;;;5032875;28;20029;-68
2022/01/08 14:58:35;;;;;;;0.40;0.30;;;;;;;;;;5031864;28;20423;-68
2022/01/08 15:01:01;;;;;;;1.33;0.52;;;;;;;;;;5032866;28;20045;-68